createdAt,value
2018-09-03T00:01:52.787Z,2.77
2018-09-03T00:04:22.439Z,2.80
2018-09-03T00:06:52.181Z,2.67
2018-09-03T00:09:21.727Z,2.80
2018-09-03T00:11:51.383Z,2.77
2018-09-03T00:14:21.167Z,2.23
2018-09-03T00:16:50.848Z,2.43
2018-09-03T00:19:20.480Z,2.70
2018-09-03T00:21:50.119Z,2.63
2018-09-03T00:24:19.835Z,2.70
2018-09-03T00:26:49.490Z,2.80
2018-09-03T00:29:19.230Z,2.67
2018-09-03T00:31:53.894Z,2.73
2018-09-03T00:34:28.692Z,2.93
2018-09-03T00:37:03.642Z,3.20
2018-09-03T00:39:38.307Z,2.93
2018-09-03T00:42:13.207Z,2.87
2018-09-03T00:44:48.132Z,2.80
2018-09-03T00:47:17.866Z,2.73
2018-09-03T00:49:47.510Z,2.53
2018-09-03T00:52:17.161Z,2.57
2018-09-03T00:54:46.993Z,3.00
2018-09-03T00:57:16.607Z,2.73
2018-09-03T00:59:46.161Z,2.87
2018-09-03T01:02:15.898Z,2.80
2018-09-03T01:04:45.442Z,2.93
2018-09-03T01:07:15.146Z,2.90
2018-09-03T01:09:44.825Z,2.97
2018-09-03T01:12:14.446Z,3.30
2018-09-03T01:14:44.177Z,3.00
2018-09-03T01:17:14.019Z,3.37
2018-09-03T01:19:43.768Z,2.83
2018-09-03T01:22:13.465Z,3.10
2018-09-03T01:24:43.027Z,3.00
2018-09-03T01:27:12.740Z,3.27
2018-09-03T01:29:42.376Z,2.90
2018-09-03T01:32:12.084Z,2.77
2018-09-03T01:34:41.658Z,3.00
2018-09-03T01:37:11.344Z,3.70
2018-09-03T01:39:41.049Z,3.03
2018-09-03T01:42:10.754Z,3.07
2018-09-03T01:44:40.370Z,3.20
2018-09-03T01:47:10.023Z,2.80
2018-09-03T01:49:39.762Z,3.03
2018-09-03T01:52:09.453Z,3.77
2018-09-03T01:54:39.088Z,3.30
2018-09-03T01:57:08.758Z,3.03
2018-09-03T01:59:38.418Z,3.50
2018-09-03T02:02:08.078Z,4.03
2018-09-03T02:04:37.812Z,3.33
2018-09-03T02:07:07.699Z,3.30
2018-09-03T02:09:37.298Z,3.43
2018-09-03T02:12:10.968Z,3.43
2018-09-03T02:14:40.783Z,3.37
2018-09-03T02:17:11.466Z,3.80
2018-09-03T02:19:41.125Z,4.10
2018-09-03T02:22:10.826Z,4.37
2018-09-03T02:24:40.408Z,3.87
2018-09-03T02:27:10.054Z,4.53
2018-09-03T02:29:39.741Z,4.07
2018-09-03T02:32:09.394Z,4.60
2018-09-03T02:34:39.072Z,4.13
2018-09-03T02:37:08.689Z,4.53
2018-09-03T02:39:38.317Z,3.70
2018-09-03T02:42:07.942Z,4.97
2018-09-03T02:44:37.637Z,4.73
2018-09-03T02:47:07.457Z,4.57
2018-09-03T02:49:37.163Z,4.33
2018-09-03T02:52:06.869Z,4.00
2018-09-03T02:54:36.570Z,4.67
2018-09-03T02:57:06.226Z,3.93
2018-09-03T02:59:35.975Z,4.27
2018-09-03T03:02:05.663Z,4.10
2018-09-03T03:04:35.240Z,4.33
2018-09-03T03:07:04.848Z,4.60
2018-09-03T03:09:34.490Z,4.07
2018-09-03T03:12:04.179Z,4.83
2018-09-03T03:14:33.874Z,4.17
2018-09-03T03:17:03.578Z,4.30
2018-09-03T03:19:33.192Z,4.57
2018-09-03T03:22:02.854Z,5.53
2018-09-03T03:24:32.608Z,5.60
2018-09-03T03:27:02.295Z,6.07
2018-09-03T03:29:31.940Z,5.57
2018-09-03T03:32:02.098Z,5.30
2018-09-03T03:34:31.753Z,5.70
2018-09-03T03:37:01.410Z,4.90
2018-09-03T03:39:31.074Z,5.57
2018-09-03T03:42:00.771Z,5.97
2018-09-03T03:44:30.414Z,6.37
2018-09-03T03:47:00.102Z,6.57
2018-09-03T03:49:29.849Z,5.97
2018-09-03T03:51:59.440Z,6.13
2018-09-03T03:54:29.055Z,6.20
2018-09-03T03:56:58.759Z,4.97
2018-09-03T03:59:28.373Z,6.53
2018-09-03T04:01:58.051Z,5.87
2018-09-03T04:04:27.719Z,7.53
2018-09-03T04:06:57.361Z,5.73
2018-09-03T04:09:26.942Z,5.80
2018-09-03T04:11:56.759Z,7.70
2018-09-03T04:14:26.464Z,6.60
2018-09-03T04:16:56.100Z,7.10
2018-09-03T04:19:25.740Z,7.27
2018-09-03T04:21:55.363Z,7.40
2018-09-03T04:24:24.987Z,6.80
2018-09-03T04:26:54.663Z,7.17
2018-09-03T04:29:24.291Z,8.40
2018-09-03T04:31:53.762Z,8.40
2018-09-03T04:34:23.458Z,8.57
2018-09-03T04:36:53.049Z,8.20
2018-09-03T04:39:22.672Z,8.33
2018-09-03T04:41:52.379Z,8.27
2018-09-03T04:44:22.147Z,9.43
2018-09-03T04:46:51.703Z,9.60
2018-09-03T04:49:21.362Z,8.90
2018-09-03T04:51:51.070Z,9.80
2018-09-03T04:54:20.871Z,9.70
2018-09-03T04:56:50.685Z,10.60
2018-09-03T04:59:20.573Z,11.27
2018-09-03T05:01:50.220Z,9.83
2018-09-03T05:04:19.902Z,10.00
2018-09-03T05:06:49.504Z,9.43
2018-09-03T05:09:19.248Z,10.83
2018-09-03T05:11:49.178Z,9.13
2018-09-03T05:14:18.788Z,8.93
2018-09-03T05:16:48.549Z,8.57
2018-09-03T05:19:18.341Z,9.40
2018-09-03T05:21:48.035Z,9.50
2018-09-03T05:24:17.736Z,9.30
2018-09-03T05:26:47.389Z,10.37
2018-09-03T05:29:17.157Z,8.63
2018-09-03T05:31:46.766Z,10.30
2018-09-03T05:34:16.627Z,10.60
2018-09-03T05:36:46.344Z,9.67
2018-09-03T05:39:16.001Z,9.03
2018-09-03T05:41:45.759Z,9.63
2018-09-03T05:44:15.515Z,9.83
2018-09-03T05:46:45.204Z,8.87
2018-09-03T05:49:14.864Z,10.80
2018-09-03T05:51:44.611Z,9.13
2018-09-03T05:54:14.342Z,10.80
2018-09-03T05:56:43.882Z,9.40
2018-09-03T05:59:13.545Z,8.17
2018-09-03T06:01:43.158Z,9.43
2018-09-03T06:04:12.827Z,9.87
2018-09-03T06:06:42.551Z,10.80
2018-09-03T06:09:13.270Z,9.90
2018-09-03T06:11:42.931Z,9.57
2018-09-03T06:14:12.603Z,11.40
2018-09-03T06:16:42.302Z,11.50
2018-09-03T06:19:12.035Z,12.47
2018-09-03T06:21:41.803Z,11.17
2018-09-03T06:24:11.415Z,10.93
2018-09-03T06:26:41.242Z,11.17
2018-09-03T06:29:10.852Z,10.97
2018-09-03T06:31:40.548Z,11.70
2018-09-03T06:34:10.209Z,11.20
2018-09-03T06:39:20.425Z,11.70
2018-09-03T06:41:50.075Z,11.07
2018-09-03T06:44:19.690Z,12.07
2018-09-03T06:46:49.373Z,11.70
2018-09-03T06:49:19.020Z,12.17
2018-09-03T06:51:48.730Z,12.23
2018-09-03T06:54:18.486Z,11.80
2018-09-03T06:56:48.236Z,12.37
2018-09-03T06:59:17.977Z,13.23
2018-09-03T07:01:47.751Z,11.70
2018-09-03T07:04:17.483Z,12.67
2018-09-03T07:06:47.216Z,12.07
2018-09-03T07:09:16.889Z,12.00
2018-09-03T07:11:46.661Z,12.77
2018-09-03T07:14:16.351Z,11.93
2018-09-03T07:16:45.990Z,12.23
2018-09-03T07:19:15.699Z,13.47
2018-09-03T07:21:45.303Z,12.20
2018-09-03T07:24:15.051Z,12.47
2018-09-03T07:26:44.752Z,12.70
2018-09-03T07:29:14.527Z,12.23
2018-09-03T07:31:44.242Z,12.97
2018-09-03T07:34:13.951Z,12.97
2018-09-03T07:36:43.650Z,12.30
2018-09-03T07:39:13.338Z,13.20
2018-09-03T07:41:43.090Z,12.30
2018-09-03T07:44:12.760Z,12.37
2018-09-03T07:46:42.449Z,13.30
2018-09-03T07:49:12.140Z,13.73
2018-09-03T07:51:41.854Z,12.77
2018-09-03T07:54:11.636Z,14.60
2018-09-03T07:56:41.371Z,13.67
2018-09-03T07:59:11.086Z,11.80
2018-09-03T08:01:40.764Z,12.40
2018-09-03T08:04:10.538Z,13.30
2018-09-03T08:06:40.270Z,14.33
2018-09-03T08:09:11.546Z,14.60
2018-09-03T08:11:41.356Z,13.43
2018-09-03T08:14:11.082Z,12.10
2018-09-03T08:16:40.796Z,14.03
2018-09-03T08:19:10.582Z,11.17
2018-09-03T08:21:40.376Z,11.23
2018-09-03T08:24:10.166Z,13.43
2018-09-03T08:26:39.866Z,14.00
2018-09-03T08:29:09.647Z,14.30
2018-09-03T08:31:39.380Z,13.83
2018-09-03T08:34:09.388Z,13.80
2018-09-03T08:36:39.102Z,12.47
2018-09-03T08:39:08.838Z,14.23
2018-09-03T08:41:38.632Z,13.33
2018-09-03T08:44:08.477Z,14.17
2018-09-03T08:46:38.121Z,14.37
2018-09-03T08:49:07.957Z,14.53
2018-09-03T08:51:37.785Z,12.53
2018-09-03T08:54:07.422Z,12.97
2018-09-03T08:56:37.147Z,13.10
2018-09-03T08:59:06.806Z,12.87
2018-09-03T09:01:36.513Z,12.23
2018-09-03T09:04:06.379Z,14.40
2018-09-03T09:06:36.027Z,12.40
2018-09-03T09:09:07.023Z,13.87
2018-09-03T09:11:36.816Z,14.90
2018-09-03T09:14:06.501Z,14.63
2018-09-03T09:16:36.158Z,14.00
2018-09-03T09:19:05.839Z,14.73
2018-09-03T09:21:35.550Z,13.07
2018-09-03T09:24:05.404Z,12.87
2018-09-03T09:26:35.191Z,12.97
2018-09-03T09:29:05.053Z,13.63
2018-09-03T09:31:34.805Z,11.07
2018-09-03T09:34:04.513Z,13.47
2018-09-03T09:36:34.263Z,14.27
2018-09-03T09:39:04.609Z,14.70
2018-09-03T09:41:34.519Z,14.87
2018-09-03T09:44:05.283Z,13.90
2018-09-03T09:46:35.087Z,14.33
2018-09-03T09:49:04.875Z,12.17
2018-09-03T09:51:34.620Z,15.33
2018-09-03T09:54:04.386Z,14.73
2018-09-03T09:56:34.120Z,15.60
2018-09-03T09:59:03.783Z,15.13
2018-09-03T10:01:37.872Z,16.37
2018-09-03T10:04:08.190Z,14.17
2018-09-03T10:06:37.876Z,14.20
2018-09-03T10:09:08.744Z,16.03
2018-09-03T10:11:38.450Z,17.80
2018-09-03T10:14:08.454Z,16.13
2018-09-03T10:16:38.204Z,16.10
2018-09-03T10:19:08.029Z,16.23
2018-09-03T10:21:37.703Z,17.13
2018-09-03T10:24:07.479Z,15.57
2018-09-03T10:26:37.149Z,17.57
2018-09-03T10:29:06.880Z,15.90
2018-09-03T10:31:36.648Z,15.80
2018-09-03T10:34:06.607Z,17.77
2018-09-03T10:36:36.197Z,16.77
2018-09-03T10:39:07.738Z,16.67
2018-09-03T10:41:37.873Z,16.50
2018-09-03T10:44:07.872Z,13.13
2018-09-03T10:46:37.871Z,15.03
2018-09-03T10:49:07.688Z,16.37
2018-09-03T10:51:37.498Z,16.77
2018-09-03T10:54:07.171Z,17.17
2018-09-03T10:56:36.772Z,17.93
2018-09-03T10:59:06.628Z,17.60
2018-09-03T11:01:36.410Z,13.80
2018-09-03T11:04:07.000Z,17.20
2018-09-03T11:06:36.859Z,19.00
2018-09-03T11:09:09.908Z,17.77
2018-09-03T11:11:40.086Z,16.50
2018-09-03T11:14:10.083Z,16.83
2018-09-03T11:16:39.786Z,17.53
2018-09-03T11:19:09.487Z,16.83
2018-09-03T11:21:39.511Z,18.63
2018-09-03T11:24:09.248Z,18.07
2018-09-03T11:26:38.953Z,18.43
2018-09-03T11:29:08.777Z,16.20
2018-09-03T11:31:38.589Z,16.03
2018-09-03T11:34:08.271Z,15.43
2018-09-03T11:36:38.322Z,16.53
2018-09-03T11:39:11.404Z,15.90
2018-09-03T11:41:41.904Z,16.23
2018-09-03T11:44:11.738Z,16.53
2018-09-03T11:46:41.500Z,15.67
2018-09-03T11:49:11.176Z,17.43
2018-09-03T11:51:40.886Z,19.23
2018-09-03T11:54:10.648Z,14.50
2018-09-03T11:56:40.435Z,18.87
2018-09-03T11:59:10.083Z,15.63
2018-09-03T12:01:39.720Z,17.17
2018-09-03T12:04:09.286Z,16.60
2018-09-03T12:06:39.040Z,14.50
2018-09-03T12:09:10.578Z,16.57
2018-09-03T12:11:40.310Z,16.93
2018-09-03T12:14:14.313Z,16.57
2018-09-03T12:16:44.142Z,15.73
2018-09-03T12:19:13.868Z,17.07
2018-09-03T12:21:43.598Z,16.40
2018-09-03T12:24:13.302Z,17.23
2018-09-03T12:26:42.918Z,14.87
2018-09-03T12:29:12.545Z,17.43
2018-09-03T12:31:42.350Z,15.83
2018-09-03T12:34:12.079Z,15.17
2018-09-03T12:36:41.778Z,13.93
2018-09-03T12:39:11.942Z,16.07
2018-09-03T12:41:41.638Z,14.47
2018-09-03T12:44:11.419Z,16.87
2018-09-03T12:46:41.088Z,16.77
2018-09-03T12:49:10.813Z,14.63
2018-09-03T12:51:40.509Z,15.80
2018-09-03T12:54:10.224Z,15.70
2018-09-03T12:56:40.005Z,14.83
2018-09-03T12:59:09.693Z,16.83
2018-09-03T13:01:39.465Z,16.63
2018-09-03T13:04:09.334Z,16.17
2018-09-03T13:06:39.110Z,14.73
2018-09-03T13:09:09.559Z,16.50
2018-09-03T13:11:39.285Z,16.87
2018-09-03T13:14:09.056Z,14.97
2018-09-03T13:16:39.387Z,16.80
2018-09-03T13:19:09.104Z,15.43
2018-09-03T13:21:38.801Z,14.87
2018-09-03T13:24:08.483Z,18.80
2018-09-03T13:26:38.170Z,16.70
2018-09-03T13:29:07.834Z,18.33
2018-09-03T13:31:37.504Z,16.93
2018-09-03T13:34:07.258Z,17.77
2018-09-03T13:36:37.057Z,18.70
2018-09-03T13:39:09.873Z,18.33
2018-09-03T13:41:39.797Z,19.77
2018-09-03T13:44:09.500Z,17.87
2018-09-03T13:46:39.219Z,19.00
2018-09-03T13:49:08.974Z,16.23
2018-09-03T13:51:38.758Z,18.30
2018-09-03T13:54:08.498Z,18.37
2018-09-03T13:56:38.279Z,21.27
2018-09-03T13:59:07.995Z,20.80
2018-09-03T14:01:37.642Z,21.13
2018-09-03T14:04:07.389Z,19.37
2018-09-03T14:06:37.102Z,19.90
2018-09-03T14:09:08.029Z,21.57
2018-09-03T14:11:37.862Z,20.60
2018-09-03T14:14:07.710Z,19.43
2018-09-03T14:16:37.537Z,18.93
2018-09-03T14:19:07.437Z,20.73
2018-09-03T14:21:37.337Z,21.13
2018-09-03T14:24:07.486Z,19.73
2018-09-03T14:26:37.226Z,19.60
2018-09-03T14:29:07.162Z,17.37
2018-09-03T14:31:36.932Z,18.43
2018-09-03T14:34:06.649Z,17.73
2018-09-03T14:36:36.469Z,19.13
2018-09-03T14:39:10.280Z,20.07
2018-09-03T14:41:40.172Z,21.47
2018-09-03T14:44:10.498Z,20.67
2018-09-03T14:46:40.239Z,18.47
2018-09-03T14:49:09.958Z,18.50
2018-09-03T14:51:39.937Z,17.30
2018-09-03T14:54:09.904Z,19.20
2018-09-03T14:56:39.804Z,19.03
2018-09-03T14:59:10.568Z,20.50
2018-09-03T15:01:40.594Z,16.10
2018-09-03T15:04:10.373Z,15.63
2018-09-03T15:06:40.067Z,16.57
2018-09-03T15:09:10.878Z,17.30
2018-09-03T15:11:41.222Z,18.87
2018-09-03T15:14:11.142Z,15.57
2018-09-03T15:16:40.843Z,17.97
2018-09-03T15:19:10.554Z,18.30
2018-09-03T15:21:40.501Z,16.37
2018-09-03T15:24:10.281Z,18.80
2018-09-03T15:26:40.117Z,16.10
2018-09-03T15:29:09.920Z,17.57
2018-09-03T15:31:39.707Z,18.33
2018-09-03T15:34:09.516Z,15.37
2018-09-03T15:36:39.389Z,17.63
2018-09-03T15:39:12.104Z,17.20
2018-09-03T15:41:42.194Z,17.13
2018-09-03T15:44:11.910Z,17.63
2018-09-03T15:46:41.629Z,18.97
2018-09-03T15:49:11.562Z,18.27
2018-09-03T15:51:41.288Z,17.03
2018-09-03T15:54:11.129Z,14.83
2018-09-03T15:56:40.741Z,19.97
2018-09-03T15:59:10.650Z,17.73
2018-09-03T16:01:40.530Z,17.17
2018-09-03T16:04:10.253Z,17.80
2018-09-03T16:06:40.136Z,17.30
2018-09-03T16:09:11.077Z,18.60
2018-09-03T16:11:40.924Z,19.63
2018-09-03T16:14:10.721Z,18.80
2018-09-03T16:16:40.479Z,16.77
2018-09-03T16:19:10.296Z,20.53
2018-09-03T16:21:40.112Z,20.77
2018-09-03T16:24:15.648Z,20.87
2018-09-03T16:26:46.006Z,21.07
2018-09-03T16:29:16.258Z,21.20
2018-09-03T16:31:46.201Z,21.77
2018-09-03T16:34:16.421Z,18.60
2018-09-03T16:36:46.234Z,20.10
2018-09-03T16:39:16.322Z,20.73
2018-09-03T16:41:46.097Z,21.30
2018-09-03T16:44:16.184Z,20.83
2018-09-03T16:46:46.001Z,20.93
2018-09-03T16:49:15.915Z,21.43
2018-09-03T16:51:45.760Z,19.00
2018-09-03T16:54:15.565Z,18.17
2018-09-03T16:56:45.392Z,21.73
2018-09-03T16:59:16.121Z,20.93
2018-09-03T17:01:46.848Z,20.63
2018-09-03T17:04:16.604Z,19.63
2018-09-03T17:06:46.691Z,20.03
2018-09-03T17:09:17.930Z,20.63
2018-09-03T17:11:47.976Z,18.40
2018-09-03T17:14:17.910Z,20.70
2018-09-03T17:16:47.712Z,19.80
2018-09-03T17:19:17.384Z,18.13
2018-09-03T17:21:47.236Z,20.90
2018-09-03T17:24:17.079Z,19.90
2018-09-03T17:26:47.109Z,20.07
2018-09-03T17:29:16.920Z,19.93
2018-09-03T17:31:46.535Z,18.40
2018-09-03T17:34:16.323Z,19.03
2018-09-03T17:37:17.126Z,19.23
2018-09-03T17:39:46.963Z,20.00
2018-09-03T17:42:16.753Z,21.83
2018-09-03T17:44:46.500Z,20.33
2018-09-03T17:47:16.295Z,18.47
2018-09-03T17:49:46.257Z,19.07
2018-09-03T17:52:15.831Z,19.70
2018-09-03T17:54:45.582Z,20.43
2018-09-03T17:57:15.455Z,18.87
2018-09-03T17:59:45.211Z,21.63
2018-09-03T18:02:15.393Z,21.77
2018-09-03T18:04:45.346Z,20.60
2018-09-03T18:07:15.017Z,20.80
2018-09-03T18:09:44.773Z,17.80
2018-09-03T18:12:14.591Z,20.73
2018-09-03T18:14:44.364Z,19.17
2018-09-03T18:17:44.705Z,19.10
2018-09-03T18:20:14.443Z,21.50
2018-09-03T18:22:44.051Z,20.93
2018-09-03T18:25:13.793Z,20.97
2018-09-03T18:27:43.507Z,21.50
2018-09-03T18:30:13.350Z,19.63
2018-09-03T18:32:43.132Z,20.07
2018-09-03T18:35:12.879Z,16.80
2018-09-03T18:37:42.848Z,16.80
2018-09-03T18:40:12.665Z,17.93
2018-09-03T18:42:42.487Z,18.07
2018-09-03T18:45:12.336Z,17.33
2018-09-03T18:47:42.239Z,19.90
2018-09-03T18:50:13.639Z,19.03
2018-09-03T18:52:43.611Z,18.30
2018-09-03T18:55:13.583Z,20.17
2018-09-03T18:57:43.499Z,22.10
2018-09-03T19:00:13.968Z,21.90
2018-09-03T19:02:43.700Z,21.37
2018-09-03T19:05:13.381Z,18.67
2018-09-03T19:07:43.328Z,23.73
2018-09-03T19:10:13.126Z,21.77
2018-09-03T19:12:43.225Z,21.13
2018-09-03T19:15:13.146Z,21.73
2018-09-03T19:17:42.964Z,23.03
2018-09-03T19:20:12.993Z,23.83
2018-09-03T19:22:42.900Z,21.40
2018-09-03T19:25:12.908Z,20.27
2018-09-03T19:27:42.981Z,20.77
2018-09-03T19:30:12.750Z,20.17
2018-09-03T19:32:42.329Z,17.43
2018-09-03T19:35:12.080Z,19.17
2018-09-03T19:37:41.811Z,21.87
2018-09-03T19:40:11.555Z,24.97
2018-09-03T19:42:41.254Z,22.10
2018-09-03T19:45:11.088Z,21.00
2018-09-03T19:47:40.809Z,21.63
2018-09-03T19:50:10.566Z,21.93
2018-09-03T19:52:40.370Z,19.10
2018-09-03T19:55:10.114Z,21.57
2018-09-03T19:57:39.831Z,24.20
2018-09-03T20:00:09.589Z,27.77
2018-09-03T20:02:39.645Z,28.27
2018-09-03T20:05:09.256Z,30.37
2018-09-03T20:07:38.896Z,29.43
2018-09-03T20:10:08.682Z,29.57
2018-09-03T20:12:39.547Z,30.67
2018-09-03T20:15:10.784Z,27.90
2018-09-03T20:17:40.427Z,29.90
2018-09-03T20:20:12.334Z,26.73
2018-09-03T20:22:42.084Z,27.00
2018-09-03T20:25:11.773Z,28.43
2018-09-03T20:27:41.335Z,25.40
2018-09-03T20:30:11.021Z,27.10
2018-09-03T20:32:40.683Z,28.97
2018-09-03T20:35:10.399Z,28.80
2018-09-03T20:37:40.168Z,28.90
2018-09-03T20:40:09.965Z,28.90
2018-09-03T20:42:39.738Z,32.40
2018-09-03T20:45:09.929Z,33.93
2018-09-03T20:47:39.738Z,32.03
2018-09-03T20:50:09.551Z,34.37
2018-09-03T20:52:39.436Z,32.23
2018-09-03T20:55:09.249Z,33.07
2018-09-03T20:57:39.177Z,33.90
2018-09-03T21:00:09.654Z,37.50
2018-09-03T21:02:39.435Z,32.83
2018-09-03T21:05:09.213Z,34.40
2018-09-03T21:07:38.981Z,35.00
2018-09-03T21:10:08.915Z,36.23
2018-09-03T21:12:38.693Z,33.57
2018-09-03T21:15:08.500Z,35.97
2018-09-03T21:17:38.208Z,33.03
2018-09-03T21:20:08.057Z,31.63
2018-09-03T21:22:37.825Z,32.03
2018-09-03T21:25:07.645Z,30.77
2018-09-03T21:28:40.196Z,29.57
2018-09-03T21:31:09.834Z,29.93
2018-09-03T21:33:39.477Z,35.23
2018-09-03T21:36:09.188Z,28.77
2018-09-03T21:38:38.866Z,31.63
2018-09-03T21:41:08.504Z,30.97
2018-09-03T21:43:38.166Z,31.77
2018-09-03T21:46:08.533Z,30.67
2018-09-03T21:48:38.115Z,31.43
2018-09-03T21:51:07.850Z,33.53
2018-09-03T21:53:37.626Z,31.67
2018-09-03T21:56:07.334Z,37.63
2018-09-03T21:58:37.004Z,38.67
2018-09-03T22:01:06.831Z,36.40
2018-09-03T22:03:36.534Z,31.43
2018-09-03T22:06:06.262Z,33.33
2018-09-03T22:08:35.897Z,35.77
2018-09-03T22:11:05.854Z,34.83
2018-09-03T22:13:35.483Z,38.47
2018-09-03T22:16:08.038Z,42.17
2018-09-03T22:18:39.334Z,39.63
2018-09-03T22:21:09.262Z,38.83
2018-09-03T22:23:39.434Z,33.50
2018-09-03T22:26:09.083Z,39.67
2018-09-03T22:28:38.818Z,38.97
2018-09-03T22:31:08.622Z,38.57
2018-09-03T22:33:38.281Z,37.50
2018-09-03T22:36:08.123Z,40.90
2018-09-03T22:38:37.802Z,43.30
2018-09-03T22:41:07.564Z,44.33
2018-09-03T22:43:37.344Z,43.03
2018-09-03T22:46:07.076Z,42.60
2018-09-03T22:48:36.850Z,46.20
2018-09-03T22:51:06.588Z,45.57
2018-09-03T22:53:36.328Z,40.73
2018-09-03T22:56:06.059Z,42.77
2018-09-03T22:58:35.724Z,39.33
2018-09-03T23:01:05.634Z,43.20
2018-09-03T23:03:35.249Z,35.47
2018-09-03T23:06:04.899Z,44.60
2018-09-03T23:08:34.622Z,41.10
2018-09-03T23:11:04.335Z,40.23
2018-09-03T23:13:34.041Z,39.27
2018-09-03T23:16:03.585Z,39.87
2018-09-03T23:18:33.241Z,37.47
2018-09-03T23:21:02.853Z,41.70
2018-09-03T23:23:32.713Z,42.27
2018-09-03T23:26:02.353Z,39.87
2018-09-03T23:28:32.209Z,38.90
2018-09-03T23:31:01.940Z,42.30
2018-09-03T23:33:31.646Z,44.30
2018-09-03T23:36:01.456Z,42.90
2018-09-03T23:38:31.226Z,34.33
2018-09-03T23:41:00.858Z,37.57
2018-09-03T23:43:30.678Z,37.73
2018-09-03T23:46:00.292Z,35.93
2018-09-03T23:48:30.064Z,40.80
2018-09-03T23:50:59.802Z,36.57
2018-09-03T23:53:29.538Z,39.37
2018-09-03T23:55:59.266Z,39.10
2018-09-03T23:58:29.118Z,45.30
